Latest Coastal Weather Observations for Red Rocks Point

IDW60701

Issued at 5:45 am WST Saturday 23 August 2014 (issued every 10 minutes, with the page automatically refreshed every 10 minutes)

About coastal observations | Map of coastal stations | Coastal observations for WA | Marine services | Other Formats
Station Details ID: 011053 Name: RED ROCKS POINT Lat: -32.20 Lon: 127.53 Height: 3.1 m
Data from the previous 72 hours. | See also: Recent months for locations in Western Australia
Date/Time
WST
Temp

°C
Wind Pressure Rain
since 9am
mm
Weather Cloud Vis
km
Sea
Height
m
Swell
Dir
 
Speed
knots
Gust
knots
hPa Trend Height
m
Period
s
Dir
23/05:30am 13.7 SSE 11 13 1026.8 - 0.0 - - - - - - -
23/05:00am 13.8 SSE 11 14 1026.5 - 0.0 - - - - - - -
23/04:30am 13.6 SSE 14 16 1026.1 - 0.0 - - - - - - -
23/04:00am 13.7 SSE 13 15 1026.0 - 0.0 - - - - - - -
23/03:30am 13.6 S 13 14 1025.9 - 0.0 - - - - - - -
23/03:00am 13.5 S 12 15 1025.9 - 0.0 - - - - - - -
23/02:30am 13.2 S 11 15 1025.9 - 0.0 - - - - - - -
23/02:00am 13.4 S 12 15 1025.7 - 0.0 - - - - - - -
23/01:30am 13.5 S 13 16 1025.6 - 0.0 - - - - - - -
23/01:00am 13.7 S 12 16 1025.6 - 0.0 - - - - - - -
23/12:30am 14.1 S 14 16 1025.5 - 0.0 - - - - - - -
23/12:00am 13.9 S 15 18 1025.5 - 0.0 - - - - - - -
 
Date/Time
WST
Temp

°C
Wind Pressure Rain
since 9am
mm
Weather Cloud Vis
km
Sea
Height
m
Swell
Dir
 
Speed
knots
Gust
knots
hPa Trend Height
m
Period
s
Dir
22/11:30pm 14.0 S 15 18 1025.3 - 0.0 - - - - - - -
22/11:00pm 14.3 S 14 17 1025.1 - 0.0 - - - - - - -
22/10:30pm 14.3 S 15 20 1025.2 - 0.0 - - - - - - -
22/10:00pm 14.4 SSW 14 21 1025.1 - 0.0 - - - - - - -
22/09:30pm 14.6 SSW 12 15 1024.9 - 0.0 - - - - - - -
22/09:00pm 14.7 SSW 12 16 1024.8 - 0.0 - - - - - - -
22/08:30pm 14.5 SSW 11 16 1024.7 - 0.0 - - - - - - -
22/08:00pm 14.5 SSW 8 13 1024.3 - 0.0 - - - - - - -
22/07:30pm 14.5 SSW 8 10 1023.8 - 0.0 - - - - - - -
22/07:00pm 14.8 SW 8 11 1023.4 - 0.0 - - - - - - -
22/06:30pm 15.0 SW 10 14 1022.8 - 0.0 - - - - - - -
22/06:00pm 15.0 SW 9 12 1022.3 - 0.0 - - - - - - -
22/05:30pm 15.2 SW 8 11 1021.9 - 0.0 - - - - - - -
22/05:00pm 15.5 SW 9 12 1021.4 - 0.0 - - - - - - -
22/04:30pm 16.3 SW 10 14 1020.9 - 0.0 - - - - - - -
22/04:00pm 17.0 SW 12 17 1020.4 - 0.0 - - - - - - -
22/03:30pm 17.6 WSW 12 18 1019.7 - 0.0 - - - - - - -
22/03:00pm 17.9 WSW 13 19 1019.2 - 0.0 - - - - - - -
22/02:30pm 18.3 WSW 14 21 1018.8 - 0.0 - - - - - - -
22/02:00pm 18.0 WSW 14 19 1018.5 - 0.0 - - - - - - -
22/01:30pm 18.4 WSW 14 23 1018.1 - 0.0 - - - - - - -
22/01:00pm 18.3 WSW 15 23 1017.7 - 0.0 - - - - - - -
22/12:30pm 18.5 WSW 13 20 1017.5 - 0.0 - - - - - - -
22/12:00pm 18.8 WSW 15 22 1017.5 - 0.0 - - - - - - -
22/11:30am 19.4 WSW 11 19 1017.5 - 0.0 - - - - - - -
22/11:00am 18.6 WSW 14 19 1017.6 - 0.0 - - - - - - -
22/10:30am 19.1 WSW 14 21 1017.5 - 0.0 - - - - - - -
22/10:00am 18.9 WSW 12 17 1017.3 - 0.0 - - - - - - -
22/09:30am 18.8 WSW 16 22 1017.2 - 0.0 - - - - - - -
22/09:00am 19.1 WSW 14 19 1016.7 - 0.0 - - - - - - -
22/08:30am 19.3 WSW 13 19 1016.4 - 0.0 - - - - - - -
22/08:00am 17.3 W 9 14 1016.1 - 0.0 - - - - - - -
22/07:30am 14.8 WNW 10 14 1015.8 - 0.0 - - - - - - -
22/07:00am 15.3 WNW 10 13 1015.0 - 0.0 - - - - - - -
22/06:30am 14.7 NW 8 11 1014.6 - 0.0 - - - - - - -
22/06:00am 13.1 NW 9 13 1014.3 - 0.0 - - - - - - -
22/05:30am 12.0 NNW 8 11 1013.5 - 0.0 - - - - - - -
22/05:00am 12.6 N 9 11 1013.2 - 0.0 - - - - - - -
22/04:30am 11.9 N 9 11 1013.2 - 0.0 - - - - - - -
22/04:00am 12.6 N 9 11 1012.9 - 0.0 - - - - - - -
22/03:30am 13.7 N 9 11 1012.6 - 0.0 - - - - - - -
22/03:00am 14.3 N 10 12 1012.7 - 0.0 - - - - - - -
22/02:30am 13.9 N 10 12 1012.8 - 0.0 - - - - - - -
22/02:00am 14.2 N 10 13 1012.9 - 0.0 - - - - - - -
22/01:30am 14.1 N 10 12 1013.1 - 0.0 - - - - - - -
22/01:00am 14.4 N 10 12 1013.3 - 0.0 - - - - - - -
22/12:30am 14.0 N 10 11 1013.5 - 0.0 - - - - - - -
22/12:00am 12.8 CALM 0 0 1013.7 - 0.0 - - - - - - -
 
Date/Time
WST
Temp

°C
Wind Pressure Rain
since 9am
mm
Weather Cloud Vis
km
Sea
Height
m
Swell
Dir
 
Speed
knots
Gust
knots
hPa Trend Height
m
Period
s
Dir
21/11:30pm 13.3 CALM 0 0 1013.8 - 0.0 - - - - - - -
21/11:00pm 13.8 CALM 0 0 1014.1 - 0.0 - - - - - - -
21/10:30pm 13.9 CALM 0 0 1014.4 - 0.0 - - - - - - -
21/10:00pm 13.4 CALM 0 0 1014.5 - 0.0 - - - - - - -
21/09:30pm 13.0 E 1 4 1014.8 - 0.0 - - - - - - -
21/09:00pm 14.1 E 4 5 1015.1 - 0.0 - - - - - - -
21/08:30pm 15.1 E 6 7 1015.2 - 0.0 - - - - - - -
21/08:00pm 15.1 ESE 7 8 1015.2 - 0.0 - - - - - - -
21/07:30pm 15.3 ESE 7 7 1015.3 - 0.0 - - - - - - -
21/07:00pm 15.3 ESE 6 8 1015.1 - 0.0 - - - - - - -
21/06:30pm 15.3 SE 7 8 1014.8 - 0.0 - - - - - - -
21/06:00pm 15.1 SE 6 7 1014.6 - 0.0 - - - - - - -
21/05:30pm 15.4 SE 5 6 1014.3 - 0.0 - - - - - - -
21/05:00pm 15.7 E 7 8 1013.9 - 0.0 - - - - - - -
21/04:30pm 16.4 E 6 7 1013.6 - 0.0 - - - - - - -
21/04:00pm 16.8 E 10 11 1013.3 - 0.0 - - - - - - -
21/03:30pm 17.1 SE 8 10 1013.3 - 0.0 - - - - - - -
21/03:00pm 17.4 E 8 10 1012.9 - 0.0 - - - - - - -
21/02:30pm 17.9 ENE 11 15 1012.8 - 0.0 - - - - - - -
21/02:00pm 18.3 ENE 13 19 1012.7 - 0.0 - - - - - - -
21/01:30pm 18.9 E 12 16 1012.7 - 0.0 - - - - - - -
21/01:00pm 19.1 E 8 13 1013.0 - 0.0 - - - - - - -
21/12:30pm 18.8 ESE 11 13 1013.2 - 0.0 - - - - - - -
21/12:00pm 19.4 SE 9 11 1013.8 - 0.0 - - - - - - -
21/11:54am 20.1 SE 7 9 1013.9 - 0.0 - - - - - - -
21/11:30am 25.7 NNW 6 11 1014.4 - 0.0 - - - - - - -
21/11:00am 23.5 NW 6 11 1015.0 - 0.0 - - - - - - -
21/10:30am 22.6 NW 9 13 1015.3 - 0.0 - - - - - - -
21/10:00am 22.1 N 9 13 1015.6 - 0.0 - - - - - - -
21/09:30am 19.7 N 11 15 1015.6 - 0.0 - - - - - - -
21/09:00am 18.4 N 12 17 1015.7 - 0.0 - - - - - - -
21/08:30am 16.2 N 10 15 1016.1 - 0.0 - - - - - - -
21/08:00am 15.5 N 9 14 1016.2 - 0.0 - - - - - - -
21/07:30am 12.0 NNE 8 11 1016.3 - 0.0 - - - - - - -
21/07:00am 10.5 NNE 6 8 1016.4 - 0.0 - - - - - - -
21/06:30am 8.4 NNE 5 7 1016.4 - 0.0 - - - - - - -
21/06:00am 7.6 NNE 5 7 1016.5 - 0.0 - - - - - - -
21/05:30am 8.6 NNE 5 6 1016.2 - 0.0 - - - - - - -
21/05:00am 9.4 NE 7 9 1016.1 - 0.0 - - - - - - -
21/04:30am 10.3 NE 7 9 1016.1 - 0.0 - - - - - - -
21/04:00am 10.9 NE 8 10 1016.0 - 0.0 - - - - - - -
21/03:30am 11.4 NE 10 12 1016.0 - 0.0 - - - - - - -
21/03:00am 11.5 NE 9 13 1016.2 - 0.0 - - - - - - -
21/02:30am 11.8 NE 10 12 1016.3 - 0.0 - - - - - - -
21/02:00am 11.9 NE 10 12 1016.7 - 0.0 - - - - - - -
21/01:30am 12.5 NE 10 13 1017.1 - 0.0 - - - - - - -
21/01:00am 12.9 NE 10 13 1017.4 - 0.0 - - - - - - -
21/12:30am 13.3 NE 11 14 1017.6 - 0.0 - - - - - - -
21/12:00am 13.5 ENE 12 15 1017.8 - 0.0 - - - - - - -
 
Date/Time
WST
Temp

°C
Wind Pressure Rain
since 9am
mm
Weather Cloud Vis
km
Sea
Height
m
Swell
Dir
 
Speed
knots
Gust
knots
hPa Trend Height
m
Period
s
Dir
20/11:30pm 13.6 NE 12 15 1018.0 - 0.0 - - - - - - -
20/11:00pm 13.8 NE 12 15 1018.1 - 0.0 - - - - - - -
20/10:30pm 14.2 ENE 13 16 1018.1 - 0.0 - - - - - - -
20/10:00pm 14.7 ENE 17 21 1018.2 - 0.0 - - - - - - -
20/09:30pm 15.1 ENE 20 24 1018.5 - 0.0 - - - - - - -
20/09:00pm 15.2 ENE 18 22 1018.6 - 0.0 - - - - - - -
20/08:30pm 15.5 ENE 19 23 1018.5 - 0.0 - - - - - - -
20/08:00pm 15.6 ENE 20 24 1018.5 - 0.0 - - - - - - -
20/07:30pm 15.5 E 19 22 1018.5 - 0.0 - - - - - - -
20/07:00pm 15.6 E 19 23 1018.4 - 0.0 - - - - - - -
20/06:30pm 15.7 E 18 21 1018.3 - 0.0 - - - - - - -
20/06:00pm 15.8 E 17 19 1018.1 - 0.0 - - - - - - -
20/05:30pm 15.9 E 17 20 1018.0 - 0.0 - - - - - - -
20/05:00pm 16.0 E 16 19 1017.6 - 0.0 - - - - - - -
20/04:30pm 16.4 E 16 19 1017.4 - 0.0 - - - - - - -
20/04:00pm 16.7 E 16 18 1017.1 - 0.0 - - - - - - -
20/03:30pm 16.9 E 16 19 1016.9 - 0.0 - - - - - - -
20/03:00pm 17.3 E 16 19 1016.9 - 0.0 - - - - - - -
20/02:30pm 17.7 E 15 18 1016.8 - 0.0 - - - - - - -
20/02:00pm 18.1 E 15 17 1017.0 - 0.0 - - - - - - -
20/01:30pm 17.8 E 12 15 1017.2 - 0.0 - - - - - - -
20/01:00pm 17.6 E 10 13 1017.3 - 0.0 - - - - - - -
20/12:30pm 17.4 E 8 10 1017.7 - 0.0 - - - - - - -
20/12:00pm 17.3 E 10 12 1018.1 - 0.0 - - - - - - -
20/11:30am 17.5 E 8 11 1018.8 - 0.0 - - - - - - -
20/11:00am 17.2 E 9 11 1019.1 - 0.0 - - - - - - -
20/10:30am 16.3 E 8 10 1019.6 - 0.0 - - - - - - -
20/10:00am 16.7 E 9 10 1019.8 - 0.0 - - - - - - -
20/09:30am 15.4 E 7 8 1020.1 - 0.0 - - - - - - -
20/09:00am 15.1 E 9 11 1020.3 - 0.0 - - - - - - -
20/08:30am 14.1 ENE 9 13 1020.4 - 0.0 - - - - - - -
20/08:00am 13.3 ENE 10 11 1020.6 - 0.0 - - - - - - -
20/07:30am 13.1 NE 8 10 1020.6 - 0.0 - - - - - - -
20/06:30am 12.5 ENE 8 11 1020.4 - 0.0 - - - - - - -
20/06:00am 12.9 ENE 11 13 1020.1 - 0.0 - - - - - - -

Other Formats:

Comma delimited format used in spreadsheet applications
http://www.bom.gov.au/fwo/IDW60701/IDW60701.94644.axf

JavaScript Object Notation format (JSON) in row-major order
http://www.bom.gov.au/fwo/IDW60701/IDW60701.94644.json